sensor_id;sensor_type;location;lat;lon;timestamp;pressure;altitude;pressure_sealevel;temperature;humidity
63097;BME280;49185;42.320;23.198;2024-03-06T00:00:39;94575.34;;;1.57;100.00
63097;BME280;49185;42.320;23.198;2024-03-06T00:03:05;94583.78;;;1.45;100.00
63097;BME280;49185;42.320;23.198;2024-03-06T00:05:30;94580.69;;;1.28;100.00
63097;BME280;49185;42.320;23.198;2024-03-06T00:07:55;94580.69;;;1.28;100.00
63097;BME280;49185;42.320;23.198;2024-03-06T00:10:21;94581.25;;;1.17;100.00
63097;BME280;49185;42.320;23.198;2024-03-06T00:12:46;94585.66;;;1.17;100.00
63097;BME280;49185;42.320;23.198;2024-03-06T00:15:12;94582.59;;;1.13;100.00
63097;BME280;49185;42.320;23.198;2024-03-06T00:17:37;94585.84;;;1.15;100.00
63097;BME280;49185;42.320;23.198;2024-03-06T00:20:02;94590.13;;;1.23;100.00
63097;BME280;49185;42.320;23.198;2024-03-06T00:22:28;94599.22;;;1.27;100.00
63097;BME280;49185;42.320;23.198;2024-03-06T00:24:53;94594.75;;;1.21;100.00
63097;BME280;49185;42.320;23.198;2024-03-06T00:27:19;94593.31;;;1.18;100.00
63097;BME280;49185;42.320;23.198;2024-03-06T00:29:44;94591.81;;;1.02;100.00
63097;BME280;49185;42.320;23.198;2024-03-06T00:32:09;94594.81;;;0.99;100.00
63097;BME280;49185;42.320;23.198;2024-03-06T00:34:35;94599.44;;;0.90;100.00
63097;BME280;49185;42.320;23.198;2024-03-06T00:37:00;94599.63;;;0.95;100.00
63097;BME280;49185;42.320;23.198;2024-03-06T00:39:26;94609.53;;;1.00;100.00
63097;BME280;49185;42.320;23.198;2024-03-06T00:41:51;94601.91;;;1.05;100.00
63097;BME280;49185;42.320;23.198;2024-03-06T00:44:16;94605.47;;;0.91;100.00
63097;BME280;49185;42.320;23.198;2024-03-06T00:46:42;94599.56;;;0.82;100.00
63097;BME280;49185;42.320;23.198;2024-03-06T00:49:07;94600.19;;;0.84;100.00
63097;BME280;49185;42.320;23.198;2024-03-06T00:51:32;94613.22;;;0.78;100.00
63097;BME280;49185;42.320;23.198;2024-03-06T00:53:58;94616.91;;;0.62;100.00
63097;BME280;49185;42.320;23.198;2024-03-06T00:56:23;94616.31;;;0.60;100.00
63097;BME280;49185;42.320;23.198;2024-03-06T00:58:48;94615.25;;;0.54;100.00
63097;BME280;49185;42.320;23.198;2024-03-06T01:01:15;94613.63;;;0.53;100.00
63097;BME280;49185;42.320;23.198;2024-03-06T01:03:41;94605.59;;;0.54;100.00
63097;BME280;49185;42.320;23.198;2024-03-06T01:06:06;94616.13;;;0.61;100.00
63097;BME280;49185;42.320;23.198;2024-03-06T01:08:31;94616.25;;;0.53;100.00
63097;BME280;49185;42.320;23.198;2024-03-06T01:10:57;94618.81;;;0.46;100.00
63097;BME280;49185;42.320;23.198;2024-03-06T01:13:22;94618.44;;;0.49;100.00
63097;BME280;49185;42.320;23.198;2024-03-06T01:15:48;94624.13;;;0.31;100.00
63097;BME280;49185;42.320;23.198;2024-03-06T01:18:13;94614.00;;;0.28;100.00
63097;BME280;49185;42.320;23.198;2024-03-06T01:20:39;94612.16;;;0.22;100.00
63097;BME280;49185;42.320;23.198;2024-03-06T01:23:04;94624.00;;;0.18;100.00
63097;BME280;49185;42.320;23.198;2024-03-06T01:25:29;94622.63;;;0.22;100.00
63097;BME280;49185;42.320;23.198;2024-03-06T01:27:55;94633.03;;;0.15;100.00
63097;BME280;49185;42.320;23.198;2024-03-06T01:30:20;94627.44;;;0.18;100.00
63097;BME280;49185;42.320;23.198;2024-03-06T01:32:46;94623.44;;;0.23;100.00
63097;BME280;49185;42.320;23.198;2024-03-06T01:35:11;94626.47;;;0.26;100.00
63097;BME280;49185;42.320;23.198;2024-03-06T01:37:36;94630.72;;;0.27;100.00
63097;BME280;49185;42.320;23.198;2024-03-06T01:40:02;94630.63;;;0.35;100.00
63097;BME280;49185;42.320;23.198;2024-03-06T01:42:28;94634.59;;;0.31;100.00
63097;BME280;49185;42.320;23.198;2024-03-06T01:44:53;94637.72;;;0.20;100.00
63097;BME280;49185;42.320;23.198;2024-03-06T01:47:18;94642.94;;;0.20;100.00
63097;BME280;49185;42.320;23.198;2024-03-06T01:49:44;94641.88;;;0.14;100.00
63097;BME280;49185;42.320;23.198;2024-03-06T01:52:11;94637.81;;;0.12;100.00
63097;BME280;49185;42.320;23.198;2024-03-06T01:54:38;94635.78;;;0.07;100.00
63097;BME280;49185;42.320;23.198;2024-03-06T01:57:06;94641.19;;;0.06;100.00
63097;BME280;49185;42.320;23.198;2024-03-06T01:59:33;94640.34;;;0.05;100.00
63097;BME280;49185;42.320;23.198;2024-03-06T02:01:58;94639.44;;;0.13;100.00
63097;BME280;49185;42.320;23.198;2024-03-06T02:04:25;94638.19;;;0.09;100.00
63097;BME280;49185;42.320;23.198;2024-03-06T02:06:51;94633.19;;;0.14;100.00
63097;BME280;49185;42.320;23.198;2024-03-06T02:09:16;94627.44;;;0.18;100.00
63097;BME280;49185;42.320;23.198;2024-03-06T02:11:41;94628.09;;;0.06;100.00
63097;BME280;49185;42.320;23.198;2024-03-06T02:14:07;94633.59;;;0.11;100.00
63097;BME280;49185;42.320;23.198;2024-03-06T02:16:33;94645.28;;;0.15;100.00
63097;BME280;49185;42.320;23.198;2024-03-06T02:18:58;94637.13;;;0.03;100.00
63097;BME280;49185;42.320;23.198;2024-03-06T02:21:25;94639.28;;;-0.01;100.00
63097;BME280;49185;42.320;23.198;2024-03-06T02:23:51;94644.75;;;-0.17;100.00
63097;BME280;49185;42.320;23.198;2024-03-06T02:26:20;94647.47;;;-0.25;100.00
63097;BME280;49185;42.320;23.198;2024-03-06T02:31:14;94651.63;;;-0.16;100.00
63097;BME280;49185;42.320;23.198;2024-03-06T02:33:39;94645.69;;;-0.25;100.00
63097;BME280;49185;42.320;23.198;2024-03-06T02:36:05;94654.25;;;-0.31;100.00
63097;BME280;49185;42.320;23.198;2024-03-06T02:38:31;94657.41;;;-0.35;100.00
63097;BME280;49185;42.320;23.198;2024-03-06T02:40:56;94655.00;;;-0.37;100.00
63097;BME280;49185;42.320;23.198;2024-03-06T02:43:21;94661.66;;;-0.34;100.00
63097;BME280;49185;42.320;23.198;2024-03-06T02:45:47;94663.44;;;-0.35;100.00
63097;BME280;49185;42.320;23.198;2024-03-06T02:48:12;94667.22;;;-0.38;100.00
63097;BME280;49185;42.320;23.198;2024-03-06T02:50:38;94668.22;;;-0.39;100.00
63097;BME280;49185;42.320;23.198;2024-03-06T02:53:03;94660.66;;;-0.48;100.00
63097;BME280;49185;42.320;23.198;2024-03-06T02:55:28;94665.16;;;-0.57;100.00
63097;BME280;49185;42.320;23.198;2024-03-06T02:57:54;94667.88;;;-0.50;100.00
63097;BME280;49185;42.320;23.198;2024-03-06T03:00:19;94666.59;;;-0.40;100.00
63097;BME280;49185;42.320;23.198;2024-03-06T03:02:45;94662.38;;;-0.41;100.00
63097;BME280;49185;42.320;23.198;2024-03-06T03:05:10;94665.44;;;-0.52;100.00
63097;BME280;49185;42.320;23.198;2024-03-06T03:07:35;94668.06;;;-0.67;100.00
63097;BME280;49185;42.320;23.198;2024-03-06T03:10:01;94660.22;;;-0.82;100.00
63097;BME280;49185;42.320;23.198;2024-03-06T03:12:26;94656.63;;;-0.81;100.00
63097;BME280;49185;42.320;23.198;2024-03-06T03:14:52;94657.53;;;-0.73;100.00
63097;BME280;49185;42.320;23.198;2024-03-06T03:17:20;94658.41;;;-0.66;100.00
63097;BME280;49185;42.320;23.198;2024-03-06T03:19:45;94653.81;;;-0.64;100.00
63097;BME280;49185;42.320;23.198;2024-03-06T03:22:11;94662.09;;;-0.61;100.00
63097;BME280;49185;42.320;23.198;2024-03-06T03:24:36;94664.66;;;-0.67;100.00
63097;BME280;49185;42.320;23.198;2024-03-06T03:27:02;94663.66;;;-0.66;100.00
63097;BME280;49185;42.320;23.198;2024-03-06T03:29:27;94668.53;;;-0.63;100.00
63097;BME280;49185;42.320;23.198;2024-03-06T03:31:52;94670.13;;;-0.62;100.00
63097;BME280;49185;42.320;23.198;2024-03-06T03:34:18;94670.78;;;-0.60;100.00
63097;BME280;49185;42.320;23.198;2024-03-06T03:36:43;94681.31;;;-0.68;100.00
63097;BME280;49185;42.320;23.198;2024-03-06T03:39:12;94679.59;;;-0.76;100.00
63097;BME280;49185;42.320;23.198;2024-03-06T03:41:37;94682.63;;;-0.87;100.00
63097;BME280;49185;42.320;23.198;2024-03-06T03:44:03;94680.94;;;-0.95;100.00
63097;BME280;49185;42.320;23.198;2024-03-06T03:46:28;94684.63;;;-0.89;100.00
63097;BME280;49185;42.320;23.198;2024-03-06T03:48:53;94690.28;;;-1.01;100.00
63097;BME280;49185;42.320;23.198;2024-03-06T03:51:19;94691.28;;;-1.02;100.00
63097;BME280;49185;42.320;23.198;2024-03-06T03:53:44;94697.13;;;-1.00;100.00
63097;BME280;49185;42.320;23.198;2024-03-06T03:56:09;94701.25;;;-0.90;100.00
63097;BME280;49185;42.320;23.198;2024-03-06T03:58:35;94707.22;;;-0.82;100.00
63097;BME280;49185;42.320;23.198;2024-03-06T04:01:00;94705.91;;;-0.78;100.00
63097;BME280;49185;42.320;23.198;2024-03-06T04:03:26;94704.81;;;-0.68;100.00
63097;BME280;49185;42.320;23.198;2024-03-06T04:05:51;94709.03;;;-0.82;100.00
63097;BME280;49185;42.320;23.198;2024-03-06T04:08:16;94716.06;;;-0.83;100.00
63097;BME280;49185;42.320;23.198;2024-03-06T04:10:43;94706.06;;;-0.79;100.00
63097;BME280;49185;42.320;23.198;2024-03-06T04:13:08;94710.41;;;-0.71;100.00
63097;BME280;49185;42.320;23.198;2024-03-06T04:15:34;94712.66;;;-0.68;100.00
63097;BME280;49185;42.320;23.198;2024-03-06T04:17:59;94715.91;;;-0.66;100.00
63097;BME280;49185;42.320;23.198;2024-03-06T04:20:24;94712.47;;;-0.67;100.00
63097;BME280;49185;42.320;23.198;2024-03-06T04:22:50;94723.03;;;-0.60;100.00
63097;BME280;49185;42.320;23.198;2024-03-06T04:25:15;94722.19;;;-0.61;100.00
63097;BME280;49185;42.320;23.198;2024-03-06T04:27:40;94726.34;;;-0.66;100.00
63097;BME280;49185;42.320;23.198;2024-03-06T04:30:06;94725.63;;;-0.75;100.00
63097;BME280;49185;42.320;23.198;2024-03-06T04:32:32;94726.63;;;-0.76;100.00
63097;BME280;49185;42.320;23.198;2024-03-06T04:34:57;94728.06;;;-0.73;100.00
63097;BME280;49185;42.320;23.198;2024-03-06T04:37:23;94736.88;;;-0.74;100.00
63097;BME280;49185;42.320;23.198;2024-03-06T04:39:48;94737.25;;;-0.78;100.00
63097;BME280;49185;42.320;23.198;2024-03-06T04:42:14;94737.94;;;-0.84;100.00
63097;BME280;49185;42.320;23.198;2024-03-06T04:44:39;94735.88;;;-0.73;100.00
63097;BME280;49185;42.320;23.198;2024-03-06T04:47:04;94739.06;;;-0.63;100.00
63097;BME280;49185;42.320;23.198;2024-03-06T04:49:33;94731.84;;;-0.76;100.00
63097;BME280;49185;42.320;23.198;2024-03-06T04:51:59;94738.66;;;-0.75;100.00
63097;BME280;49185;42.320;23.198;2024-03-06T04:54:24;94744.69;;;-0.74;100.00
63097;BME280;49185;42.320;23.198;2024-03-06T04:56:49;94748.16;;;-0.74;100.00
63097;BME280;49185;42.320;23.198;2024-03-06T04:59:15;94751.09;;;-0.77;100.00
63097;BME280;49185;42.320;23.198;2024-03-06T05:01:40;94751.63;;;-0.82;100.00
63097;BME280;49185;42.320;23.198;2024-03-06T05:04:05;94753.78;;;-0.85;100.00
63097;BME280;49185;42.320;23.198;2024-03-06T05:06:31;94749.22;;;-0.83;100.00
63097;BME280;49185;42.320;23.198;2024-03-06T05:08:56;94753.16;;;-0.87;100.00
63097;BME280;49185;42.320;23.198;2024-03-06T05:11:22;94755.88;;;-0.81;100.00
63097;BME280;49185;42.320;23.198;2024-03-06T05:13:47;94757.31;;;-0.78;100.00
63097;BME280;49185;42.320;23.198;2024-03-06T05:16:12;94768.78;;;-0.64;100.00
63097;BME280;49185;42.320;23.198;2024-03-06T05:18:38;94767.34;;;-0.52;100.00
63097;BME280;49185;42.320;23.198;2024-03-06T05:21:03;94775.00;;;-0.50;100.00
63097;BME280;49185;42.320;23.198;2024-03-06T05:23:29;94773.13;;;-0.42;100.00
63097;BME280;49185;42.320;23.198;2024-03-06T05:25:54;94777.63;;;-0.35;100.00
63097;BME280;49185;42.320;23.198;2024-03-06T05:28:20;94780.63;;;-0.24;100.00
63097;BME280;49185;42.320;23.198;2024-03-06T05:30:45;94775.81;;;0.10;100.00
63097;BME280;49185;42.320;23.198;2024-03-06T05:33:10;94780.75;;;0.34;100.00
63097;BME280;49185;42.320;23.198;2024-03-06T05:35:36;94778.72;;;0.51;100.00
63097;BME280;49185;42.320;23.198;2024-03-06T05:38:01;94783.28;;;0.64;100.00
63097;BME280;49185;42.320;23.198;2024-03-06T05:40:26;94790.28;;;0.79;100.00
63097;BME280;49185;42.320;23.198;2024-03-06T05:42:52;94788.34;;;0.87;100.00
63097;BME280;49185;42.320;23.198;2024-03-06T05:45:17;94785.03;;;1.00;100.00
63097;BME280;49185;42.320;23.198;2024-03-06T05:47:43;94793.41;;;1.10;100.00
63097;BME280;49185;42.320;23.198;2024-03-06T05:50:08;94790.75;;;1.32;100.00
63097;BME280;49185;42.320;23.198;2024-03-06T05:52:34;94792.63;;;1.38;100.00
63097;BME280;49185;42.320;23.198;2024-03-06T05:54:59;94790.53;;;1.55;100.00
63097;BME280;49185;42.320;23.198;2024-03-06T05:57:24;94793.22;;;1.62;100.00
63097;BME280;49185;42.320;23.198;2024-03-06T05:59:50;94802.22;;;1.81;100.00
63097;BME280;49185;42.320;23.198;2024-03-06T06:02:15;94796.25;;;1.94;100.00
63097;BME280;49185;42.320;23.198;2024-03-06T06:04:41;94799.34;;;2.11;100.00
63097;BME280;49185;42.320;23.198;2024-03-06T06:07:06;94792.56;;;2.30;100.00
63097;BME280;49185;42.320;23.198;2024-03-06T06:09:32;94792.72;;;2.63;100.00
63097;BME280;49185;42.320;23.198;2024-03-06T06:11:57;94793.16;;;2.80;100.00
63097;BME280;49185;42.320;23.198;2024-03-06T06:14:23;94791.63;;;3.19;100.00
63097;BME280;49185;42.320;23.198;2024-03-06T06:16:48;94797.28;;;3.76;100.00
63097;BME280;49185;42.320;23.198;2024-03-06T06:19:14;94798.66;;;3.98;100.00
63097;BME280;49185;42.320;23.198;2024-03-06T06:21:39;94797.66;;;4.58;100.00
63097;BME280;49185;42.320;23.198;2024-03-06T06:24:05;94789.25;;;4.29;100.00
63097;BME280;49185;42.320;23.198;2024-03-06T06:26:30;94798.34;;;4.47;100.00
63097;BME280;49185;42.320;23.198;2024-03-06T06:28:56;94803.84;;;4.84;100.00
63097;BME280;49185;42.320;23.198;2024-03-06T06:31:22;94803.47;;;5.44;100.00
63097;BME280;49185;42.320;23.198;2024-03-06T06:33:47;94799.13;;;5.81;100.00
63097;BME280;49185;42.320;23.198;2024-03-06T06:36:13;94798.31;;;5.81;100.00
63097;BME280;49185;42.320;23.198;2024-03-06T06:38:38;94801.09;;;5.86;100.00
63097;BME280;49185;42.320;23.198;2024-03-06T06:41:03;94804.41;;;5.56;100.00
63097;BME280;49185;42.320;23.198;2024-03-06T06:43:29;94792.06;;;6.00;100.00
63097;BME280;49185;42.320;23.198;2024-03-06T06:45:54;94789.63;;;5.74;100.00
63097;BME280;49185;42.320;23.198;2024-03-06T06:48:20;94791.78;;;6.64;100.00
63097;BME280;49185;42.320;23.198;2024-03-06T06:50:45;94786.78;;;7.47;100.00
63097;BME280;49185;42.320;23.198;2024-03-06T06:53:10;94783.84;;;7.90;100.00
63097;BME280;49185;42.320;23.198;2024-03-06T06:55:36;94783.81;;;7.78;100.00
63097;BME280;49185;42.320;23.198;2024-03-06T06:58:01;94784.28;;;7.87;100.00
63097;BME280;49185;42.320;23.198;2024-03-06T07:00:27;94790.19;;;7.77;100.00
63097;BME280;49185;42.320;23.198;2024-03-06T07:02:52;94793.66;;;7.36;100.00
63097;BME280;49185;42.320;23.198;2024-03-06T07:05:18;94793.47;;;6.58;100.00
63097;BME280;49185;42.320;23.198;2024-03-06T07:07:43;94804.13;;;5.64;100.00
63097;BME280;49185;42.320;23.198;2024-03-06T07:10:09;94798.84;;;5.39;100.00
63097;BME280;49185;42.320;23.198;2024-03-06T07:12:35;94800.66;;;5.13;100.00
63097;BME280;49185;42.320;23.198;2024-03-06T07:15:01;94801.34;;;4.57;100.00
63097;BME280;49185;42.320;23.198;2024-03-06T07:17:26;94794.53;;;4.23;100.00
63097;BME280;49185;42.320;23.198;2024-03-06T07:19:51;94805.25;;;4.41;100.00
63097;BME280;49185;42.320;23.198;2024-03-06T13:58:50;94605.06;;;10.57;100.00
63097;BME280;49185;42.320;23.198;2024-03-06T14:01:36;94600.50;;;10.53;100.00
63097;BME280;49185;42.320;23.198;2024-03-06T14:04:22;94597.34;;;10.56;100.00
63097;BME280;49185;42.320;23.198;2024-03-06T14:07:08;94595.69;;;10.77;100.00
63097;BME280;49185;42.320;23.198;2024-03-06T14:09:53;94594.25;;;10.96;86.90
63097;BME280;49185;42.320;23.198;2024-03-06T14:12:39;94597.50;;;11.04;84.55
63097;BME280;49185;42.320;23.198;2024-03-06T14:15:25;94591.66;;;11.07;85.49
63097;BME280;49185;42.320;23.198;2024-03-06T14:18:11;94594.63;;;11.10;84.30
63097;BME280;49185;42.320;23.198;2024-03-06T14:20:56;94591.13;;;11.10;84.62
63097;BME280;49185;42.320;23.198;2024-03-06T14:23:42;94591.91;;;11.05;86.15
63097;BME280;49185;42.320;23.198;2024-03-06T14:26:27;94593.00;;;11.09;89.53
63097;BME280;49185;42.320;23.198;2024-03-06T14:29:14;94594.53;;;11.00;88.17
63097;BME280;49185;42.320;23.198;2024-03-06T14:32:00;94587.34;;;11.00;88.48
63097;BME280;49185;42.320;23.198;2024-03-06T14:34:46;94581.78;;;11.02;92.38
63097;BME280;49185;42.320;23.198;2024-03-06T14:37:31;94584.19;;;11.04;91.09
63097;BME280;49185;42.320;23.198;2024-03-06T14:40:17;94588.13;;;11.01;92.86
63097;BME280;49185;42.320;23.198;2024-03-06T14:43:03;94593.25;;;11.08;87.46
63097;BME280;49185;42.320;23.198;2024-03-06T14:45:48;94594.41;;;10.85;90.73
63097;BME280;49185;42.320;23.198;2024-03-06T14:48:34;94597.78;;;10.75;91.32
63097;BME280;49185;42.320;23.198;2024-03-06T14:51:20;94600.59;;;10.63;94.67
63097;BME280;49185;42.320;23.198;2024-03-06T14:54:05;94597.63;;;10.59;96.99
63097;BME280;49185;42.320;23.198;2024-03-06T14:56:52;94610.41;;;10.57;98.17
63097;BME280;49185;42.320;23.198;2024-03-06T14:59:38;94601.28;;;10.53;100.00
63097;BME280;49185;42.320;23.198;2024-03-06T15:02:23;94612.94;;;10.47;98.02
63097;BME280;49185;42.320;23.198;2024-03-06T15:05:09;94615.31;;;10.43;98.16
63097;BME280;49185;42.320;23.198;2024-03-06T15:07:55;94621.78;;;10.31;100.00
63097;BME280;49185;42.320;23.198;2024-03-06T15:10:40;94616.28;;;10.15;100.00
63097;BME280;49185;42.320;23.198;2024-03-06T15:13:26;94623.09;;;10.06;100.00
63097;BME280;49185;42.320;23.198;2024-03-06T15:16:12;94622.78;;;10.02;100.00
63097;BME280;49185;42.320;23.198;2024-03-06T15:18:57;94621.91;;;9.97;100.00
63097;BME280;49185;42.320;23.198;2024-03-06T15:21:43;94619.94;;;9.87;100.00
63097;BME280;49185;42.320;23.198;2024-03-06T15:24:29;94622.28;;;9.83;100.00
63097;BME280;49185;42.320;23.198;2024-03-06T15:27:18;94619.31;;;9.80;100.00
63097;BME280;49185;42.320;23.198;2024-03-06T15:30:05;94623.84;;;9.79;100.00
63097;BME280;49185;42.320;23.198;2024-03-06T15:32:51;94633.00;;;9.72;100.00
63097;BME280;49185;42.320;23.198;2024-03-06T15:35:37;94626.56;;;9.84;100.00
63097;BME280;49185;42.320;23.198;2024-03-06T15:38:22;94628.63;;;9.82;100.00
63097;BME280;49185;42.320;23.198;2024-03-06T15:41:08;94635.97;;;9.75;100.00
63097;BME280;49185;42.320;23.198;2024-03-06T15:43:54;94642.53;;;9.67;100.00
63097;BME280;49185;42.320;23.198;2024-03-06T15:46:39;94645.44;;;9.49;100.00
63097;BME280;49185;42.320;23.198;2024-03-06T15:49:25;94647.78;;;9.45;100.00
63097;BME280;49185;42.320;23.198;2024-03-06T15:52:12;94646.91;;;9.40;100.00
63097;BME280;49185;42.320;23.198;2024-03-06T15:54:57;94652.53;;;9.43;100.00
63097;BME280;49185;42.320;23.198;2024-03-06T15:57:43;94656.66;;;9.34;100.00
63097;BME280;49185;42.320;23.198;2024-03-06T16:00:29;94648.75;;;9.22;100.00
63097;BME280;49185;42.320;23.198;2024-03-06T16:03:15;94656.41;;;9.19;100.00
63097;BME280;49185;42.320;23.198;2024-03-06T16:06:00;94659.72;;;9.09;100.00
63097;BME280;49185;42.320;23.198;2024-03-06T16:08:46;94647.56;;;8.96;100.00
63097;BME280;49185;42.320;23.198;2024-03-06T16:11:32;94651.25;;;8.95;100.00
63097;BME280;49185;42.320;23.198;2024-03-06T16:14:17;94662.34;;;8.92;100.00
63097;BME280;49185;42.320;23.198;2024-03-06T16:17:03;94660.69;;;8.74;100.00
63097;BME280;49185;42.320;23.198;2024-03-06T16:19:49;94656.38;;;8.68;100.00
63097;BME280;49185;42.320;23.198;2024-03-06T16:22:35;94656.88;;;8.53;100.00
63097;BME280;49185;42.320;23.198;2024-03-06T16:25:20;94662.09;;;8.36;100.00
63097;BME280;49185;42.320;23.198;2024-03-06T16:28:06;94658.91;;;8.22;100.00
63097;BME280;49185;42.320;23.198;2024-03-06T16:30:52;94651.34;;;8.14;100.00
63097;BME280;49185;42.320;23.198;2024-03-06T16:33:38;94646.75;;;8.09;100.00
63097;BME280;49185;42.320;23.198;2024-03-06T16:36:24;94648.13;;;8.12;100.00
63097;BME280;49185;42.320;23.198;2024-03-06T16:39:09;94653.72;;;8.27;100.00
63097;BME280;49185;42.320;23.198;2024-03-06T16:41:55;94651.88;;;8.28;100.00
63097;BME280;49185;42.320;23.198;2024-03-06T16:44:41;94650.41;;;8.20;100.00
63097;BME280;49185;42.320;23.198;2024-03-06T16:47:26;94649.91;;;8.23;100.00
63097;BME280;49185;42.320;23.198;2024-03-06T16:50:12;94648.56;;;8.21;100.00
63097;BME280;49185;42.320;23.198;2024-03-06T16:52:58;94651.31;;;8.26;100.00
63097;BME280;49185;42.320;23.198;2024-03-06T16:55:43;94639.72;;;8.15;100.00
63097;BME280;49185;42.320;23.198;2024-03-06T16:58:29;94644.81;;;7.93;100.00
63097;BME280;49185;42.320;23.198;2024-03-06T17:01:15;94642.91;;;7.76;100.00
63097;BME280;49185;42.320;23.198;2024-03-06T17:04:01;94648.91;;;7.60;100.00
63097;BME280;49185;42.320;23.198;2024-03-06T17:06:47;94648.34;;;7.46;100.00
63097;BME280;49185;42.320;23.198;2024-03-06T17:09:32;94653.03;;;7.32;100.00
63097;BME280;49185;42.320;23.198;2024-03-06T17:12:18;94651.91;;;7.28;100.00
63097;BME280;49185;42.320;23.198;2024-03-06T17:15:04;94645.69;;;7.22;100.00
63097;BME280;49185;42.320;23.198;2024-03-06T17:17:51;94650.13;;;6.98;100.00
63097;BME280;49185;42.320;23.198;2024-03-06T17:20:36;94648.28;;;6.99;100.00
63097;BME280;49185;42.320;23.198;2024-03-06T17:23:22;94651.88;;;6.93;100.00
63097;BME280;49185;42.320;23.198;2024-03-06T17:26:08;94656.44;;;6.86;100.00
63097;BME280;49185;42.320;23.198;2024-03-06T17:28:53;94652.75;;;6.87;100.00
63097;BME280;49185;42.320;23.198;2024-03-06T17:31:39;94658.75;;;6.94;100.00
63097;BME280;49185;42.320;23.198;2024-03-06T17:34:25;94654.16;;;6.89;100.00
63097;BME280;49185;42.320;23.198;2024-03-06T17:37:10;94649.50;;;6.73;100.00
63097;BME280;49185;42.320;23.198;2024-03-06T17:39:56;94652.69;;;6.63;100.00
63097;BME280;49185;42.320;23.198;2024-03-06T17:42:42;94652.88;;;6.50;100.00
63097;BME280;49185;42.320;23.198;2024-03-06T17:45:27;94657.44;;;6.42;100.00
63097;BME280;49185;42.320;23.198;2024-03-06T17:48:13;94650.22;;;6.50;100.00
63097;BME280;49185;42.320;23.198;2024-03-06T17:50:59;94658.72;;;6.40;100.00
63097;BME280;49185;42.320;23.198;2024-03-06T17:53:44;94658.78;;;6.33;100.00
63097;BME280;49185;42.320;23.198;2024-03-06T17:56:30;94659.03;;;6.32;100.00
63097;BME280;49185;42.320;23.198;2024-03-06T17:59:16;94664.66;;;6.35;100.00
63097;BME280;49185;42.320;23.198;2024-03-06T18:02:02;94657.56;;;6.36;100.00
63097;BME280;49185;42.320;23.198;2024-03-06T18:04:48;94658.34;;;6.36;100.00
63097;BME280;49185;42.320;23.198;2024-03-06T18:07:34;94662.16;;;6.40;100.00
63097;BME280;49185;42.320;23.198;2024-03-06T18:10:19;94658.28;;;6.43;100.00
63097;BME280;49185;42.320;23.198;2024-03-06T18:13:05;94667.22;;;6.42;100.00
63097;BME280;49185;42.320;23.198;2024-03-06T18:15:51;94658.50;;;6.41;100.00
63097;BME280;49185;42.320;23.198;2024-03-06T18:18:37;94659.06;;;6.43;100.00
63097;BME280;49185;42.320;23.198;2024-03-06T18:21:23;94660.28;;;6.59;100.00
63097;BME280;49185;42.320;23.198;2024-03-06T18:24:08;94655.47;;;6.68;100.00
63097;BME280;49185;42.320;23.198;2024-03-06T18:26:54;94661.91;;;6.72;100.00
63097;BME280;49185;42.320;23.198;2024-03-06T18:29:40;94652.28;;;6.78;100.00
63097;BME280;49185;42.320;23.198;2024-03-06T18:32:25;94663.91;;;6.77;100.00
63097;BME280;49185;42.320;23.198;2024-03-06T18:35:11;94657.16;;;6.93;100.00
63097;BME280;49185;42.320;23.198;2024-03-06T18:37:57;94665.22;;;7.10;100.00
63097;BME280;49185;42.320;23.198;2024-03-06T18:40:42;94670.06;;;7.25;100.00
63097;BME280;49185;42.320;23.198;2024-03-06T18:43:28;94670.66;;;7.27;100.00
63097;BME280;49185;42.320;23.198;2024-03-06T18:46:14;94668.81;;;7.27;100.00
63097;BME280;49185;42.320;23.198;2024-03-06T18:49:00;94669.38;;;7.29;100.00
63097;BME280;49185;42.320;23.198;2024-03-06T18:51:46;94668.56;;;7.29;100.00
63097;BME280;49185;42.320;23.198;2024-03-06T18:54:32;94674.41;;;7.07;100.00
63097;BME280;49185;42.320;23.198;2024-03-06T18:57:18;94669.53;;;6.92;100.00
63097;BME280;49185;42.320;23.198;2024-03-06T19:00:05;94678.63;;;6.84;100.00
63097;BME280;49185;42.320;23.198;2024-03-06T19:02:50;94674.38;;;6.83;100.00
63097;BME280;49185;42.320;23.198;2024-03-06T19:05:36;94670.91;;;6.83;100.00
63097;BME280;49185;42.320;23.198;2024-03-06T19:08:22;94672.53;;;6.84;100.00
63097;BME280;49185;42.320;23.198;2024-03-06T19:11:08;94666.22;;;6.97;100.00
63097;BME280;49185;42.320;23.198;2024-03-06T19:13:53;94669.81;;;6.91;100.00
63097;BME280;49185;42.320;23.198;2024-03-06T19:16:39;94663.59;;;6.97;100.00
63097;BME280;49185;42.320;23.198;2024-03-06T19:19:25;94675.00;;;7.09;100.00
63097;BME280;49185;42.320;23.198;2024-03-06T19:22:10;94669.94;;;7.08;100.00
63097;BME280;49185;42.320;23.198;2024-03-06T19:24:56;94667.50;;;7.06;100.00
63097;BME280;49185;42.320;23.198;2024-03-06T19:27:42;94662.22;;;7.06;100.00
63097;BME280;49185;42.320;23.198;2024-03-06T19:30:28;94668.44;;;7.00;100.00
63097;BME280;49185;42.320;23.198;2024-03-06T19:33:13;94663.59;;;6.97;100.00
63097;BME280;49185;42.320;23.198;2024-03-06T19:35:59;94659.56;;;6.94;100.00
63097;BME280;49185;42.320;23.198;2024-03-06T19:38:45;94663.25;;;6.93;100.00
63097;BME280;49185;42.320;23.198;2024-03-06T19:41:30;94667.50;;;6.94;100.00
63097;BME280;49185;42.320;23.198;2024-03-06T19:44:16;94671.41;;;6.92;100.00
63097;BME280;49185;42.320;23.198;2024-03-06T19:47:02;94671.06;;;7.00;100.00
63097;BME280;49185;42.320;23.198;2024-03-06T19:49:47;94669.69;;;6.97;100.00
63097;BME280;49185;42.320;23.198;2024-03-06T19:52:33;94669.94;;;6.96;100.00
63097;BME280;49185;42.320;23.198;2024-03-06T19:55:19;94660.94;;;6.97;100.00
63097;BME280;49185;42.320;23.198;2024-03-06T19:58:05;94655.19;;;6.88;100.00
63097;BME280;49185;42.320;23.198;2024-03-06T20:00:50;94667.47;;;6.82;100.00